createdAt,value
2023-12-04T00:00:26.501Z,24.57
2023-12-04T00:02:53.941Z,24.70
2023-12-04T00:05:21.442Z,25.30
2023-12-04T00:07:49.097Z,24.60
2023-12-04T00:10:16.555Z,24.77
2023-12-04T00:12:44.069Z,24.87
2023-12-04T00:15:11.620Z,25.60
2023-12-04T00:17:41.359Z,25.97
2023-12-04T00:20:10.364Z,26.17
2023-12-04T00:22:38.719Z,24.63
2023-12-04T00:25:07.858Z,25.20
2023-12-04T00:27:35.442Z,25.80
2023-12-04T00:30:05.080Z,26.10
2023-12-04T00:32:32.641Z,26.20
2023-12-04T00:35:00.112Z,25.63
2023-12-04T00:37:28.414Z,25.43
2023-12-04T00:39:55.963Z,25.70
2023-12-04T00:42:23.372Z,26.53
2023-12-04T00:44:51.357Z,25.03
2023-12-04T00:47:18.798Z,26.07
2023-12-04T00:49:46.266Z,24.97
2023-12-04T00:52:13.668Z,25.77
2023-12-04T00:54:44.147Z,26.10
2023-12-04T00:57:11.624Z,25.37
2023-12-04T00:59:39.168Z,26.03
2023-12-04T01:02:08.133Z,25.90
2023-12-04T01:04:35.565Z,25.57
2023-12-04T01:07:03.274Z,24.90
2023-12-04T01:09:30.769Z,25.60
2023-12-04T01:11:58.208Z,24.33
2023-12-04T01:14:25.750Z,26.67
2023-12-04T01:16:53.138Z,25.33
2023-12-04T01:19:20.732Z,25.27
2023-12-04T01:21:48.194Z,24.57
2023-12-04T01:24:16.581Z,24.37
2023-12-04T01:26:43.946Z,25.57
2023-12-04T01:29:11.327Z,25.63
2023-12-04T01:31:38.734Z,26.10
2023-12-04T01:34:06.307Z,24.97
2023-12-04T01:36:33.816Z,25.30
2023-12-04T01:39:01.244Z,24.40
2023-12-04T01:41:28.637Z,26.20
2023-12-04T01:43:56.110Z,24.53
2023-12-04T01:46:23.609Z,24.77
2023-12-04T01:48:51.324Z,24.37
2023-12-04T01:51:20.511Z,24.33
2023-12-04T01:53:48.825Z,25.53
2023-12-04T01:56:17.047Z,25.10
2023-12-04T01:58:45.041Z,24.63
2023-12-04T02:01:12.970Z,24.07
2023-12-04T02:03:42.668Z,25.83
2023-12-04T02:06:11.076Z,24.40
2023-12-04T02:08:38.734Z,25.90
2023-12-04T02:11:06.444Z,25.13
2023-12-04T02:13:34.212Z,24.73
2023-12-04T02:16:07.337Z,24.83
2023-12-04T02:18:36.087Z,24.97
2023-12-04T02:21:03.717Z,25.70
2023-12-04T02:23:31.170Z,24.73
2023-12-04T02:26:02.967Z,24.73
2023-12-04T02:28:34.459Z,24.27
2023-12-04T02:31:05.563Z,25.30
2023-12-04T02:33:34.403Z,23.93
2023-12-04T02:36:05.106Z,24.63
2023-12-04T02:38:32.685Z,24.53
2023-12-04T02:41:01.121Z,24.40
2023-12-04T02:43:28.668Z,24.13
2023-12-04T02:45:56.088Z,24.20
2023-12-04T02:48:23.629Z,23.73
2023-12-04T02:50:51.100Z,23.50
2023-12-04T02:53:18.534Z,24.07
2023-12-04T02:55:45.962Z,23.67
2023-12-04T02:58:13.404Z,24.63
2023-12-04T03:00:41.017Z,23.97
2023-12-04T03:03:08.533Z,24.63
2023-12-04T03:05:36.004Z,23.63
2023-12-04T03:08:03.644Z,22.53
2023-12-04T03:10:31.165Z,23.67
2023-12-04T03:12:58.800Z,23.17
2023-12-04T03:15:26.396Z,23.53
2023-12-04T03:17:53.902Z,24.07
2023-12-04T03:20:21.498Z,24.10
2023-12-04T03:22:48.935Z,21.83
2023-12-04T03:25:16.439Z,22.67
2023-12-04T03:27:43.924Z,24.20
2023-12-04T03:30:11.794Z,23.97
2023-12-04T03:32:39.262Z,23.70
2023-12-04T03:35:07.000Z,22.70
2023-12-04T03:37:34.587Z,23.50
2023-12-04T03:40:02.080Z,24.13
2023-12-04T03:42:29.627Z,22.67
2023-12-04T03:44:57.073Z,22.70
2023-12-04T03:47:24.800Z,23.57
2023-12-04T03:49:52.403Z,23.33
2023-12-04T03:52:19.903Z,23.03
2023-12-04T03:54:47.408Z,22.80
2023-12-04T03:57:14.848Z,23.70
2023-12-04T03:59:42.295Z,23.00
2023-12-04T04:02:09.732Z,23.57
2023-12-04T04:04:37.059Z,22.67
2023-12-04T04:07:04.817Z,22.90
2023-12-04T04:09:32.386Z,22.77
2023-12-04T04:11:59.849Z,23.57
2023-12-04T04:14:27.447Z,24.00
2023-12-04T04:16:55.238Z,23.83
2023-12-04T04:19:22.698Z,21.73
2023-12-04T04:21:50.203Z,23.30
2023-12-04T04:24:17.705Z,23.27
2023-12-04T04:26:45.138Z,23.37
2023-12-04T04:29:12.564Z,24.47
2023-12-04T04:31:39.989Z,22.90
2023-12-04T04:34:07.512Z,23.27
2023-12-04T04:36:36.717Z,23.57
2023-12-04T04:39:04.933Z,22.77
2023-12-04T04:41:32.527Z,23.63
2023-12-04T04:43:59.866Z,24.83
2023-12-04T04:46:28.883Z,25.30
2023-12-04T04:48:56.351Z,27.17
2023-12-04T04:51:23.822Z,30.17
2023-12-04T04:53:51.270Z,33.00
2023-12-04T04:56:18.791Z,38.17
2023-12-04T04:58:46.157Z,40.77
2023-12-04T05:01:20.941Z,38.93
2023-12-04T05:03:48.388Z,35.50
2023-12-04T05:06:16.006Z,34.23
2023-12-04T05:08:43.462Z,35.87
2023-12-04T05:11:10.971Z,33.57
2023-12-04T05:13:38.350Z,34.60
2023-12-04T05:16:06.242Z,33.10
2023-12-04T05:18:34.050Z,32.70
2023-12-04T05:21:01.456Z,30.27
2023-12-04T05:23:28.894Z,29.60
2023-12-04T05:25:56.290Z,31.00
2023-12-04T05:28:23.714Z,30.13
2023-12-04T05:30:51.229Z,31.17
2023-12-04T05:33:18.765Z,30.30
2023-12-04T05:35:47.658Z,30.67
2023-12-04T05:38:15.280Z,30.67
2023-12-04T05:40:42.654Z,29.53
2023-12-04T05:43:10.185Z,29.10
2023-12-04T05:45:37.892Z,27.80
2023-12-04T05:48:05.677Z,28.40
2023-12-04T05:50:33.329Z,28.00
2023-12-04T05:53:00.811Z,26.63
2023-12-04T05:55:28.396Z,27.00
2023-12-04T05:57:55.868Z,27.47
2023-12-04T06:00:26.047Z,27.07
2023-12-04T06:02:55.050Z,26.37
2023-12-04T06:05:22.775Z,25.87
2023-12-04T06:07:50.279Z,24.33
2023-12-04T06:10:17.858Z,25.13
2023-12-04T06:12:45.322Z,24.77
2023-12-04T06:15:12.901Z,25.27
2023-12-04T06:17:40.306Z,24.50
2023-12-04T06:20:08.186Z,23.43
2023-12-04T06:22:35.874Z,23.53
2023-12-04T06:25:04.158Z,23.27
2023-12-04T06:27:31.882Z,24.13
2023-12-04T06:29:59.558Z,23.60
2023-12-04T06:32:27.248Z,22.37
2023-12-04T06:34:56.686Z,23.07
2023-12-04T06:37:24.627Z,24.10
2023-12-04T06:39:55.021Z,23.53
2023-12-04T06:42:22.826Z,22.83
2023-12-04T06:44:50.683Z,23.80
2023-12-04T06:47:23.256Z,23.23
2023-12-04T06:49:50.864Z,23.47
2023-12-04T06:52:18.358Z,23.93
2023-12-04T06:54:45.854Z,23.23
2023-12-04T06:57:15.765Z,23.93
2023-12-04T06:59:43.729Z,22.60
2023-12-04T07:02:11.279Z,23.47
2023-12-04T07:04:38.754Z,23.93
2023-12-04T07:07:06.610Z,23.40
2023-12-04T07:09:35.110Z,24.10
2023-12-04T07:12:04.168Z,23.07
2023-12-04T07:14:31.723Z,23.07
2023-12-04T07:16:59.161Z,22.97
2023-12-04T07:19:28.051Z,22.63
2023-12-04T07:21:55.519Z,22.87
2023-12-04T07:24:23.531Z,23.53
2023-12-04T07:26:51.188Z,23.50
2023-12-04T07:29:18.561Z,23.60
2023-12-04T07:31:45.977Z,23.43
2023-12-04T07:34:13.734Z,22.90
2023-12-04T07:36:41.288Z,23.03
2023-12-04T07:39:08.692Z,23.77
2023-12-04T07:41:36.095Z,22.60
2023-12-04T07:44:04.496Z,22.07
2023-12-04T07:46:31.962Z,22.47
2023-12-04T07:48:59.431Z,22.07
2023-12-04T07:51:26.956Z,22.63
2023-12-04T07:53:54.860Z,22.73
2023-12-04T07:56:22.241Z,21.60
2023-12-04T07:58:49.586Z,31.03
2023-12-04T08:01:17.163Z,21.77
2023-12-04T08:03:44.760Z,22.90
2023-12-04T08:06:12.432Z,22.30
2023-12-04T08:08:39.905Z,21.93
2023-12-04T08:11:07.256Z,21.23
2023-12-04T08:13:34.606Z,21.40
2023-12-04T08:16:02.822Z,22.60
2023-12-04T08:18:30.143Z,21.47
2023-12-04T08:20:57.606Z,22.17
2023-12-04T08:23:24.994Z,21.83
2023-12-04T08:25:52.447Z,21.80
2023-12-04T08:28:19.755Z,21.20
2023-12-04T08:30:47.178Z,21.60
2023-12-04T08:33:14.779Z,21.93
2023-12-04T08:35:42.268Z,20.37
2023-12-04T08:38:09.788Z,21.53
2023-12-04T08:40:37.459Z,22.23
2023-12-04T08:43:05.074Z,21.57
2023-12-04T08:45:32.429Z,21.33
2023-12-04T08:47:59.840Z,20.47
2023-12-04T08:50:27.898Z,20.63
2023-12-04T08:52:55.604Z,21.47
2023-12-04T08:55:23.046Z,22.77
2023-12-04T08:57:50.527Z,21.77
2023-12-04T09:00:18.060Z,20.97
2023-12-04T09:02:49.490Z,20.23
2023-12-04T09:05:21.984Z,20.40
2023-12-04T09:10:30.124Z,20.90
2023-12-04T09:13:07.260Z,21.13
2023-12-04T09:15:34.897Z,20.47
2023-12-04T09:18:02.480Z,21.13
2023-12-04T09:20:29.979Z,20.07
2023-12-04T09:23:04.320Z,20.63
2023-12-04T09:25:35.881Z,20.70
2023-12-04T09:28:03.633Z,21.67
2023-12-04T09:30:30.961Z,20.30
2023-12-04T09:32:59.321Z,20.63
2023-12-04T09:35:26.918Z,20.33
2023-12-04T09:37:55.220Z,21.80
2023-12-04T09:40:22.558Z,20.50
2023-12-04T09:42:50.330Z,20.27
2023-12-04T09:45:19.576Z,20.57
2023-12-04T09:47:49.027Z,20.10
2023-12-04T09:50:22.259Z,19.93
2023-12-04T09:52:54.352Z,20.53
2023-12-04T09:55:21.875Z,19.80
2023-12-04T09:57:50.322Z,19.70
2023-12-04T10:00:19.022Z,21.10
2023-12-04T10:02:47.335Z,20.30
2023-12-04T10:05:14.890Z,20.33
2023-12-04T10:07:42.338Z,20.30
2023-12-04T10:10:10.078Z,21.23
2023-12-04T10:12:38.414Z,19.03
2023-12-04T10:15:08.145Z,18.43
2023-12-04T10:17:41.630Z,20.83
2023-12-04T10:20:20.253Z,22.50
2023-12-04T10:22:58.967Z,21.53
2023-12-04T10:25:29.923Z,18.67
2023-12-04T10:28:10.307Z,19.47
2023-12-04T10:30:38.101Z,18.80
2023-12-04T10:33:06.850Z,17.53
2023-12-04T10:35:39.411Z,18.53
2023-12-04T10:38:08.423Z,19.30
2023-12-04T10:40:37.814Z,18.53
2023-12-04T10:43:12.374Z,19.10
2023-12-04T10:45:41.348Z,19.77
2023-12-04T10:48:09.808Z,19.67
2023-12-04T10:50:41.971Z,19.87
2023-12-04T10:53:11.351Z,20.40
2023-12-04T10:55:39.346Z,21.20
2023-12-04T10:58:10.226Z,20.37
2023-12-04T11:00:42.249Z,21.47
2023-12-04T11:03:11.472Z,21.60
2023-12-04T11:05:41.405Z,21.07
2023-12-04T11:08:17.276Z,21.10
2023-12-04T11:11:00.318Z,21.40
2023-12-04T11:13:36.681Z,21.47
2023-12-04T11:16:11.082Z,21.93
2023-12-04T11:18:44.172Z,21.40
2023-12-04T11:21:12.954Z,21.77
2023-12-04T11:23:41.116Z,21.63
2023-12-04T11:26:10.137Z,22.27
2023-12-04T11:28:39.728Z,23.13
2023-12-04T11:31:08.433Z,23.80
2023-12-04T11:33:39.608Z,21.30
2023-12-04T11:36:14.816Z,23.53
2023-12-04T11:38:47.981Z,23.47
2023-12-04T11:41:26.149Z,23.23
2023-12-04T11:43:59.071Z,23.50
2023-12-04T11:46:29.253Z,24.10
2023-12-04T11:48:58.788Z,23.47
2023-12-04T11:51:47.657Z,23.83
2023-12-04T11:54:16.952Z,23.80
2023-12-04T11:57:11.500Z,23.43
2023-12-04T11:59:39.761Z,23.97
2023-12-04T12:02:12.093Z,22.93
2023-12-04T12:04:45.674Z,23.17
2023-12-04T12:07:13.373Z,22.83
2023-12-04T12:09:41.090Z,23.67
2023-12-04T12:12:09.894Z,23.13
2023-12-04T12:14:38.814Z,23.23
2023-12-04T12:17:06.232Z,22.87
2023-12-04T12:19:34.270Z,22.83
2023-12-04T12:22:03.188Z,23.93
2023-12-04T12:24:31.901Z,23.67
2023-12-04T12:26:59.573Z,23.23
2023-12-04T12:29:28.927Z,22.93
2023-12-04T12:31:56.668Z,22.80
2023-12-04T12:34:24.393Z,23.93
2023-12-04T12:36:51.955Z,24.33
2023-12-04T12:39:21.049Z,24.40
2023-12-04T12:41:52.030Z,24.10
2023-12-04T12:44:19.740Z,23.83
2023-12-04T12:46:51.029Z,24.23
2023-12-04T12:49:29.605Z,24.17
2023-12-04T12:52:09.464Z,36.53
2023-12-04T12:54:43.671Z,23.50
2023-12-04T12:57:12.772Z,25.17
2023-12-04T12:59:40.883Z,24.43
2023-12-04T13:02:08.909Z,23.27
2023-12-04T13:04:37.926Z,24.23
2023-12-04T13:07:07.569Z,24.23
2023-12-04T13:09:39.240Z,24.50
2023-12-04T13:12:07.744Z,24.13
2023-12-04T13:14:38.993Z,23.93
2023-12-04T13:17:07.702Z,23.67
2023-12-04T13:19:37.007Z,23.83
2023-12-04T13:22:05.642Z,23.70
2023-12-04T13:24:33.493Z,24.03
2023-12-04T13:27:01.116Z,24.97
2023-12-04T13:29:31.601Z,24.90
2023-12-04T13:32:00.362Z,24.17
2023-12-04T13:34:27.980Z,25.00
2023-12-04T13:36:55.546Z,23.80
2023-12-04T13:39:48.606Z,25.00
2023-12-04T13:42:35.260Z,25.83
2023-12-04T13:45:05.352Z,25.17
2023-12-04T13:47:32.872Z,24.53
2023-12-04T13:50:00.477Z,25.80
2023-12-04T13:52:31.298Z,25.93
2023-12-04T13:54:59.064Z,26.57
2023-12-04T13:57:29.442Z,27.83
2023-12-04T14:00:00.041Z,25.63
2023-12-04T14:02:28.393Z,25.77
2023-12-04T14:04:56.224Z,26.90
2023-12-04T14:07:26.207Z,24.30
2023-12-04T14:09:54.524Z,25.33
2023-12-04T14:12:22.456Z,25.60
2023-12-04T14:14:50.351Z,25.27
2023-12-04T14:17:17.688Z,24.53
2023-12-04T14:19:45.337Z,25.73
2023-12-04T14:22:13.011Z,27.57
2023-12-04T14:24:40.761Z,26.23
2023-12-04T14:27:09.268Z,25.27
2023-12-04T14:29:37.209Z,26.73
2023-12-04T14:32:04.929Z,26.27
2023-12-04T14:34:33.835Z,25.17
2023-12-04T14:37:01.458Z,24.60
2023-12-04T14:39:29.101Z,25.13
2023-12-04T14:41:56.616Z,24.63
2023-12-04T14:44:24.093Z,24.27
2023-12-04T14:46:51.792Z,23.17
2023-12-04T14:49:19.438Z,22.93
2023-12-04T14:51:49.610Z,23.40
2023-12-04T14:54:31.909Z,22.73
2023-12-04T14:57:08.485Z,23.53
2023-12-04T14:59:43.998Z,22.90
2023-12-04T15:02:47.334Z,24.30
2023-12-04T15:05:33.823Z,22.80
2023-12-04T15:08:04.443Z,23.40
2023-12-04T15:13:37.900Z,26.73
2023-12-04T15:16:15.012Z,25.60
2023-12-04T15:18:57.984Z,26.83
2023-12-04T15:21:25.933Z,27.03
2023-12-04T15:23:53.310Z,27.97
2023-12-04T15:26:21.873Z,26.63
2023-12-04T15:28:51.136Z,25.57
2023-12-04T15:31:18.794Z,26.27
2023-12-04T15:33:46.471Z,26.80
2023-12-04T15:36:14.050Z,27.57
2023-12-04T15:38:41.948Z,28.33
2023-12-04T15:41:10.298Z,29.50
2023-12-04T15:43:38.352Z,27.50
2023-12-04T15:46:07.343Z,30.27
2023-12-04T15:48:35.573Z,27.53
2023-12-04T15:51:03.357Z,27.80
2023-12-04T15:53:30.767Z,27.40
2023-12-04T15:55:58.374Z,28.23
2023-12-04T15:58:25.938Z,27.50
2023-12-04T16:00:53.533Z,27.53
2023-12-04T16:03:30.323Z,28.10
2023-12-04T16:05:58.467Z,28.40
2023-12-04T16:08:26.229Z,28.03
2023-12-04T16:10:54.391Z,28.33
2023-12-04T16:13:22.568Z,27.37
2023-12-04T16:15:50.430Z,27.70
2023-12-04T16:18:19.186Z,28.97
2023-12-04T16:20:49.701Z,28.17
2023-12-04T16:23:17.430Z,29.00
2023-12-04T16:25:45.711Z,28.43
2023-12-04T16:28:13.930Z,28.03
2023-12-04T16:30:42.230Z,28.13
2023-12-04T16:33:10.201Z,27.97
2023-12-04T16:35:38.881Z,28.60
2023-12-04T16:38:09.122Z,29.17
2023-12-04T16:40:37.046Z,29.87
2023-12-04T16:43:04.993Z,30.10
2023-12-04T16:45:33.042Z,28.60
2023-12-04T16:48:02.473Z,30.53
2023-12-04T16:50:33.120Z,29.23
2023-12-04T16:53:01.431Z,30.20
2023-12-04T16:55:30.189Z,29.83
2023-12-04T16:58:00.952Z,29.83
2023-12-04T17:00:28.896Z,32.37
2023-12-04T17:02:56.850Z,30.53
2023-12-04T17:05:27.424Z,29.10
2023-12-04T17:07:55.249Z,29.23
2023-12-04T17:10:24.650Z,30.47
2023-12-04T17:12:53.907Z,30.03
2023-12-04T17:15:21.987Z,30.43
2023-12-04T17:17:49.904Z,30.30
2023-12-04T17:20:18.180Z,30.33
2023-12-04T17:22:46.955Z,32.00
2023-12-04T17:25:14.833Z,30.80
2023-12-04T17:27:43.307Z,31.03
2023-12-04T17:30:11.828Z,30.60
2023-12-04T17:32:39.658Z,29.40
2023-12-04T17:35:07.847Z,30.67
2023-12-04T17:37:35.414Z,30.33
2023-12-04T17:40:03.508Z,29.83
2023-12-04T17:42:31.211Z,30.63
2023-12-04T17:44:58.956Z,31.13
2023-12-04T17:47:26.611Z,29.97
2023-12-04T17:49:58.029Z,30.37
2023-12-04T17:52:26.475Z,31.03
2023-12-04T17:54:54.748Z,31.00
2023-12-04T17:57:23.303Z,29.93
2023-12-04T17:59:51.351Z,29.47
2023-12-04T18:02:19.021Z,29.97
2023-12-04T18:04:50.793Z,29.63
2023-12-04T18:07:22.000Z,30.67
2023-12-04T18:09:52.190Z,32.17
2023-12-04T18:12:19.996Z,32.17
2023-12-04T18:14:51.886Z,32.17
2023-12-04T18:17:21.564Z,32.03
2023-12-04T18:19:52.284Z,31.77
2023-12-04T18:22:23.540Z,31.37
2023-12-04T18:24:53.094Z,32.07
2023-12-04T18:27:23.243Z,31.07
2023-12-04T18:29:56.977Z,32.50
2023-12-04T18:32:33.371Z,32.17
2023-12-04T18:35:11.519Z,35.53
2023-12-04T18:38:11.175Z,32.30
2023-12-04T18:40:43.828Z,32.73
2023-12-04T18:43:14.099Z,33.43
2023-12-04T18:45:42.287Z,32.97
2023-12-04T18:48:19.392Z,33.20
2023-12-04T18:50:48.948Z,32.30
2023-12-04T18:53:18.287Z,32.10
2023-12-04T18:55:46.105Z,30.00
2023-12-04T18:58:16.014Z,31.10
2023-12-04T19:00:53.493Z,32.43
2023-12-04T19:03:23.145Z,31.27
2023-12-04T19:05:51.061Z,31.33
2023-12-04T19:08:19.211Z,30.73
2023-12-04T19:10:49.751Z,30.57
2023-12-04T19:13:22.015Z,30.57
2023-12-04T19:15:51.120Z,30.70
2023-12-04T19:18:19.005Z,30.70
2023-12-04T19:20:47.496Z,32.83
2023-12-04T19:23:15.204Z,31.10
2023-12-04T19:28:14.037Z,31.97
2023-12-04T19:30:42.030Z,31.53
2023-12-04T19:33:15.297Z,32.77
2023-12-04T19:35:46.323Z,31.63
2023-12-04T19:38:13.854Z,31.30
2023-12-04T19:40:41.611Z,31.97
2023-12-04T19:43:09.426Z,30.90
2023-12-04T19:45:37.121Z,31.17
2023-12-04T19:48:06.004Z,31.83
2023-12-04T19:50:34.916Z,32.73
2023-12-04T19:53:02.510Z,32.57
2023-12-04T19:55:30.226Z,32.70
2023-12-04T19:57:57.881Z,36.33
2023-12-04T20:00:25.667Z,34.23
2023-12-04T20:02:53.794Z,33.87
2023-12-04T20:05:23.018Z,32.43
2023-12-04T20:07:51.246Z,32.83
2023-12-04T20:10:19.785Z,35.87
2023-12-04T20:12:49.967Z,37.57
2023-12-04T20:15:17.918Z,35.57
2023-12-04T20:17:45.650Z,35.47
2023-12-04T20:20:14.123Z,33.40
2023-12-04T20:22:41.701Z,32.90
2023-12-04T20:25:09.500Z,34.17
2023-12-04T20:27:37.209Z,32.70
2023-12-04T20:30:09.176Z,33.80
2023-12-04T20:32:55.285Z,35.43
2023-12-04T20:35:48.266Z,34.53
2023-12-04T20:38:18.364Z,36.90
2023-12-04T20:40:48.063Z,34.80
2023-12-04T20:43:16.175Z,35.40
2023-12-04T20:45:45.742Z,35.20
2023-12-04T20:48:14.770Z,35.17
2023-12-04T20:50:42.457Z,34.23
2023-12-04T20:53:13.531Z,35.07
2023-12-04T20:55:41.237Z,34.77
2023-12-04T20:58:09.080Z,32.27
2023-12-04T21:00:37.862Z,33.37
2023-12-04T21:03:07.724Z,34.33
2023-12-04T21:05:35.546Z,34.30
2023-12-04T21:08:03.321Z,34.37
2023-12-04T21:10:31.600Z,33.87
2023-12-04T21:12:59.433Z,34.13
2023-12-04T21:15:27.845Z,33.20
2023-12-04T21:17:55.892Z,34.27
2023-12-04T21:20:23.838Z,35.97
2023-12-04T21:22:51.704Z,34.40
2023-12-04T21:25:19.659Z,33.77
2023-12-04T21:27:47.928Z,34.07
2023-12-04T21:30:17.146Z,35.03
2023-12-04T21:32:46.053Z,35.63
2023-12-04T21:35:13.861Z,35.10
2023-12-04T21:37:41.538Z,34.97
2023-12-04T21:40:09.922Z,32.80
2023-12-04T21:42:37.901Z,33.73
2023-12-04T21:45:06.271Z,34.87
2023-12-04T21:47:36.837Z,34.67
2023-12-04T21:50:06.017Z,34.60
2023-12-04T21:52:36.591Z,36.07
2023-12-04T21:55:06.850Z,37.17
2023-12-04T21:57:35.838Z,35.00
2023-12-04T22:00:10.647Z,34.50
2023-12-04T22:02:46.074Z,35.13
2023-12-04T22:05:14.921Z,35.03
2023-12-04T22:07:42.706Z,35.73
2023-12-04T22:10:10.388Z,34.43
2023-12-04T22:12:38.215Z,34.80
2023-12-04T22:15:06.427Z,36.10
2023-12-04T22:17:34.808Z,36.60
2023-12-04T22:20:05.954Z,33.27
2023-12-04T22:22:33.766Z,34.87
2023-12-04T22:25:02.738Z,34.77
2023-12-04T22:27:30.788Z,34.90
2023-12-04T22:29:58.473Z,37.73
2023-12-04T22:32:26.304Z,35.40
2023-12-04T22:35:01.924Z,37.90
2023-12-04T22:37:36.445Z,36.67
2023-12-04T22:40:08.055Z,36.10
2023-12-04T22:42:37.422Z,38.03
2023-12-04T22:45:05.251Z,35.37
2023-12-04T22:47:32.805Z,35.47
2023-12-04T22:50:00.409Z,36.33
2023-12-04T22:52:28.257Z,35.63
2023-12-04T22:54:55.711Z,34.20
2023-12-04T22:57:23.327Z,34.40
2023-12-04T22:59:50.885Z,38.60
2023-12-04T23:02:19.013Z,38.17
2023-12-04T23:04:49.561Z,35.43
2023-12-04T23:07:17.262Z,35.37
2023-12-04T23:09:44.993Z,36.20
2023-12-04T23:12:12.553Z,35.97
2023-12-04T23:14:39.968Z,37.37
2023-12-04T23:17:07.345Z,37.53
2023-12-04T23:19:34.808Z,35.90
2023-12-04T23:22:02.232Z,36.17
2023-12-04T23:24:29.788Z,36.67
2023-12-04T23:26:57.345Z,36.27
2023-12-04T23:29:25.581Z,36.80
2023-12-04T23:31:53.035Z,38.43
2023-12-04T23:34:20.588Z,37.27
2023-12-04T23:36:48.856Z,38.37
2023-12-04T23:39:18.764Z,39.50
2023-12-04T23:41:46.319Z,37.90
2023-12-04T23:44:14.917Z,36.17
2023-12-04T23:46:42.540Z,38.20
2023-12-04T23:49:10.166Z,36.77
2023-12-04T23:51:37.909Z,35.67
2023-12-04T23:54:06.004Z,36.43
2023-12-04T23:56:36.842Z,36.37
2023-12-04T23:59:04.223Z,36.97
